Time;durP1;ratioP1;P1;durP2;ratioP2;P2;SDS_P1;SDS_P2;PMS_P1;PMS_P2;Temp;Humidity;BMP_temperature;BMP_pressure;BME280_temperature;BME280_humidity;BME280_pressure;Samples;Min_cycle;Max_cycle;Signal;HPM_P1;HPM_P2
2022/12/18 00:00:24;;;;;;;52.25;20.52;;;-4.50;76.40;;;;;;4183502;28;20527;-85
2022/12/18 00:02:44;;;;;;;60.30;20.60;;;-4.50;76.20;;;;;;4183176;28;20048;-85
2022/12/18 00:05:03;;;;;;;57.13;20.75;;;-4.40;76.30;;;;;;4184996;28;20179;-85
2022/12/18 00:07:22;;;;;;;59.58;21.02;;;-4.50;76.20;;;;;;4182414;28;20039;-85
2022/12/18 00:09:42;;;;;;;54.50;19.48;;;-4.50;76.20;;;;;;4187805;28;20063;-85
2022/12/18 00:12:01;;;;;;;55.72;20.15;;;-4.50;76.20;;;;;;4188056;28;20055;-85
2022/12/18 00:14:20;;;;;;;58.08;22.80;;;-4.40;76.30;;;;;;4182994;28;20579;-85
2022/12/18 00:16:42;;;;;;;57.05;20.98;;;-4.40;76.40;;;;;;4179817;28;20102;-85
2022/12/18 00:19:02;;;;;;;55.40;21.58;;;-4.50;76.30;;;;;;4184812;28;20425;-84
2022/12/18 00:21:22;;;;;;;51.53;19.02;;;-4.40;76.20;;;;;;4182554;28;20103;-84
2022/12/18 00:23:43;;;;;;;61.70;20.88;;;-4.40;76.20;;;;;;4184560;28;20086;-85
2022/12/18 00:26:07;;;;;;;61.35;20.17;;;-4.40;76.10;;;;;;4176017;28;20174;-85
2022/12/18 00:28:27;;;;;;;50.28;18.77;;;-4.40;76.20;;;;;;4185524;28;20570;-85
2022/12/18 00:30:47;;;;;;;51.90;19.73;;;-4.40;76.20;;;;;;4185704;28;20028;-84
2022/12/18 00:33:06;;;;;;;55.70;20.20;;;-4.40;76.00;;;;;;4179453;28;20102;-85
2022/12/18 00:35:25;;;;;;;52.30;19.13;;;-4.40;76.00;;;;;;4184034;28;20096;-84
2022/12/18 00:37:44;;;;;;;58.75;20.38;;;-4.40;76.10;;;;;;4179182;28;20043;-85
2022/12/18 00:40:04;;;;;;;47.90;17.67;;;-4.40;76.00;;;;;;4184545;28;20097;-85
2022/12/18 00:45:01;;;;;;;55.00;18.20;;;-4.40;75.90;;;;;;4184067;28;20059;-84
2022/12/18 00:47:20;;;;;;;55.90;19.63;;;-4.40;75.80;;;;;;4182357;28;20038;-84
2022/12/18 00:49:39;;;;;;;58.03;21.10;;;-4.40;75.80;;;;;;4182726;28;20032;-85
2022/12/18 00:51:58;;;;;;;50.13;20.10;;;-4.40;75.70;;;;;;4183362;28;20059;-85
2022/12/18 00:54:17;;;;;;;58.05;19.67;;;-4.40;75.80;;;;;;4183812;28;20103;-86
2022/12/18 00:56:38;;;;;;;52.95;19.20;;;-4.40;75.70;;;;;;4181449;28;20090;-84
2022/12/18 00:58:57;;;;;;;56.53;19.80;;;-4.40;75.80;;;;;;4183841;28;20044;-85
2022/12/18 01:01:17;;;;;;;51.40;18.02;;;-4.40;75.70;;;;;;4181227;28;20698;-84
2022/12/18 01:03:36;;;;;;;48.47;17.95;;;-4.40;75.80;;;;;;4181551;28;20044;-85
2022/12/18 01:05:55;;;;;;;44.75;17.38;;;-4.40;75.70;;;;;;4174071;28;20421;-84
2022/12/18 01:08:14;;;;;;;47.03;17.42;;;-4.40;75.70;;;;;;4178714;28;20164;-86
2022/12/18 01:10:33;;;;;;;53.05;19.33;;;-4.40;75.80;;;;;;4179814;28;20085;-85
2022/12/18 01:12:52;;;;;;;47.65;17.83;;;-4.40;75.80;;;;;;4180825;28;20047;-85
2022/12/18 01:15:13;;;;;;;43.17;16.83;;;-4.40;75.80;;;;;;4181743;28;20503;-85
2022/12/18 01:17:33;;;;;;;53.25;19.27;;;-4.40;75.90;;;;;;4179371;28;20039;-85
2022/12/18 01:19:53;;;;;;;52.28;18.90;;;-4.40;75.80;;;;;;4180539;28;20063;-83
2022/12/18 01:22:12;;;;;;;50.13;18.15;;;-4.40;75.90;;;;;;4184300;28;20070;-85
2022/12/18 01:24:31;;;;;;;47.75;17.88;;;-4.30;75.90;;;;;;4186378;28;20051;-84
2022/12/18 01:26:50;;;;;;;43.13;16.33;;;-4.40;75.80;;;;;;4176702;28;20492;-83
2022/12/18 01:29:09;;;;;;;47.85;17.95;;;-4.40;75.90;;;;;;4182401;28;20066;-85
2022/12/18 01:31:30;;;;;;;49.40;18.17;;;-4.40;75.80;;;;;;4181009;28;20035;-83
2022/12/18 01:33:51;;;;;;;41.72;17.52;;;-4.30;75.90;;;;;;4182798;28;20120;-85
2022/12/18 01:36:19;;;;;;;45.20;16.85;;;-4.30;75.90;;;;;;4182402;28;20039;-83
2022/12/18 01:38:38;;;;;;;44.55;17.40;;;-4.30;75.90;;;;;;4183938;28;20583;-86
2022/12/18 01:40:58;;;;;;;49.85;18.27;;;-4.30;75.90;;;;;;4182473;28;20067;-83
2022/12/18 01:43:18;;;;;;;40.80;16.67;;;-4.30;75.90;;;;;;4184664;28;20082;-84
2022/12/18 01:45:37;;;;;;;47.72;18.55;;;-4.30;75.90;;;;;;4183519;28;20095;-83
2022/12/18 01:48:00;;;;;;;41.92;15.82;;;-4.30;76.00;;;;;;4184946;28;20099;-83
2022/12/18 01:50:33;;;;;;;51.20;17.73;;;-4.30;76.00;;;;;;4184534;28;20093;-83
2022/12/18 01:52:56;;;;;;;42.63;17.67;;;-4.30;75.90;;;;;;4181586;28;20032;-84
2022/12/18 01:55:18;;;;;;;47.03;17.00;;;-4.30;76.00;;;;;;4180734;28;20515;-84
2022/12/18 01:57:38;;;;;;;48.00;17.02;;;-4.30;76.00;;;;;;4180853;28;20063;-85
2022/12/18 02:00:08;;;;;;;41.33;15.82;;;-4.30;76.00;;;;;;4183793;28;20106;-84
2022/12/18 02:02:29;;;;;;;42.08;16.63;;;-4.20;76.00;;;;;;4185140;28;20055;-83
2022/12/18 02:04:48;;;;;;;45.30;17.25;;;-4.20;76.00;;;;;;4185413;28;20455;-85
2022/12/18 02:07:13;;;;;;;45.75;17.45;;;-4.20;76.00;;;;;;4176909;28;20071;-85
2022/12/18 02:09:46;;;;;;;44.72;16.55;;;-4.20;76.00;;;;;;4192798;28;20035;-84
2022/12/18 02:12:11;;;;;;;44.30;15.98;;;-4.20;75.90;;;;;;4194032;28;20040;-85
2022/12/18 02:14:40;;;;;;;35.17;16.75;;;-4.20;75.80;;;;;;4182517;28;20083;-84
2022/12/18 02:17:22;;;;;;;42.25;15.77;;;-4.20;75.80;;;;;;4177187;28;20110;-83
2022/12/18 02:20:03;;;;;;;45.92;16.35;;;-4.20;75.80;;;;;;4183582;28;20527;-84
2022/12/18 02:22:37;;;;;;;38.90;15.57;;;-4.20;75.80;;;;;;4178958;28;20039;-85
2022/12/18 02:25:04;;;;;;;39.22;16.17;;;-4.20;75.70;;;;;;4178312;28;20040;-85
2022/12/18 02:27:24;;;;;;;43.88;17.13;;;-4.20;75.70;;;;;;4182317;28;20094;-85
2022/12/18 02:29:51;;;;;;;38.88;15.15;;;-4.20;75.70;;;;;;4174213;28;20032;-85
2022/12/18 02:32:16;;;;;;;37.88;16.08;;;-4.20;75.60;;;;;;4179267;28;20082;-84
2022/12/18 02:34:38;;;;;;;42.83;17.00;;;-4.20;75.50;;;;;;4175929;28;20043;-83
2022/12/18 02:37:00;;;;;;;44.78;17.05;;;-4.20;75.50;;;;;;4177335;28;20047;-84
2022/12/18 02:39:21;;;;;;;39.50;14.75;;;-4.20;75.50;;;;;;4180240;28;20044;-85
2022/12/18 02:41:41;;;;;;;39.53;15.70;;;-4.20;75.50;;;;;;4185861;28;20463;-84
2022/12/18 02:44:02;;;;;;;37.42;15.00;;;-4.20;75.50;;;;;;4181683;28;20392;-84
2022/12/18 02:46:32;;;;;;;42.72;16.35;;;-4.20;75.50;;;;;;4177916;28;20059;-84
2022/12/18 02:49:04;;;;;;;39.05;16.98;;;-4.30;75.40;;;;;;4187428;28;20031;-84
2022/12/18 02:51:27;;;;;;;44.47;17.30;;;-4.20;75.50;;;;;;4182613;28;20263;-85
2022/12/18 02:53:57;;;;;;;47.47;17.80;;;-4.30;75.40;;;;;;4185738;28;20038;-84
2022/12/18 02:56:26;;;;;;;46.50;17.35;;;-4.30;75.40;;;;;;4195124;28;20043;-84
2022/12/18 02:59:04;;;;;;;42.42;16.48;;;-4.30;75.30;;;;;;4185715;28;20046;-84
2022/12/18 03:01:49;;;;;;;36.58;15.70;;;-4.30;75.30;;;;;;4184431;28;20043;-86
2022/12/18 03:04:39;;;;;;;39.67;15.57;;;-4.30;75.30;;;;;;4180840;28;20067;-86
2022/12/18 03:07:02;;;;;;;35.50;15.05;;;-4.30;75.40;;;;;;4178501;28;20087;-85
2022/12/18 03:09:30;;;;;;;36.80;15.85;;;-4.30;75.40;;;;;;4184037;28;20063;-83
2022/12/18 03:14:40;;;;;;;40.95;15.65;;;-4.30;75.40;;;;;;4180915;28;20051;-84
2022/12/18 03:17:04;;;;;;;42.30;16.63;;;-4.30;75.40;;;;;;4179133;28;20039;-85
2022/12/18 03:19:25;;;;;;;;;;;-4.30;75.40;;;;;;4196968;28;20047;-83
2022/12/18 03:21:54;;;;;;;43.50;16.65;;;-4.30;75.50;;;;;;4184500;28;19940;-84
2022/12/18 03:24:15;;;;;;;44.13;16.17;;;-4.30;75.40;;;;;;4179962;28;20534;-84
2022/12/18 03:26:36;;;;;;;39.40;16.52;;;-4.30;75.30;;;;;;4182667;28;20056;-83
2022/12/18 03:29:09;;;;;;;43.00;16.27;;;-4.30;75.30;;;;;;4185289;28;20093;-84
2022/12/18 03:31:31;;;;;;;46.80;17.63;;;-4.30;75.30;;;;;;4182633;28;20048;-83
2022/12/18 03:33:58;;;;;;;39.60;15.95;;;-4.30;75.40;;;;;;4179305;28;20093;-84
2022/12/18 03:36:18;;;;;;;42.95;16.83;;;-4.30;75.40;;;;;;4177946;28;20067;-84
2022/12/18 03:38:37;;;;;;;51.03;17.63;;;-4.30;75.30;;;;;;4186580;28;20515;-84
2022/12/18 03:41:15;;;;;;;44.75;15.68;;;-4.30;75.40;;;;;;4185318;28;20094;-85
2022/12/18 03:43:48;;;;;;;46.95;18.13;;;-4.30;75.30;;;;;;4182496;28;20040;-85
2022/12/18 03:46:49;;;;;;;47.67;18.38;;;-4.30;75.30;;;;;;4184116;28;20523;-84
2022/12/18 03:49:21;;;;;;;45.30;17.13;;;-4.30;76.00;;;;;;4180628;28;20069;-84
2022/12/18 03:51:51;;;;;;;50.10;19.60;;;-4.30;75.20;;;;;;4184925;28;20059;-85
2022/12/18 03:54:12;;;;;;;43.33;16.77;;;-4.30;75.20;;;;;;4186723;28;21430;-85
2022/12/18 03:56:36;;;;;;;45.28;15.20;;;-4.40;75.10;;;;;;4183706;28;20401;-85
2022/12/18 03:58:58;;;;;;;41.28;16.92;;;-4.40;75.10;;;;;;4185792;28;20098;-86
2022/12/18 04:01:19;;;;;;;40.90;16.45;;;-4.40;75.10;;;;;;4185391;28;20051;-85
2022/12/18 04:03:39;;;;;;;42.30;17.27;;;-4.40;75.00;;;;;;4188569;28;20102;-85
2022/12/18 04:06:00;;;;;;;45.65;16.02;;;-4.40;75.00;;;;;;4182888;28;20043;-84
2022/12/18 04:08:21;;;;;;;43.50;16.52;;;-4.40;75.00;;;;;;4186555;28;20543;-84
2022/12/18 04:10:40;;;;;;;39.97;15.05;;;-4.40;74.90;;;;;;4186015;28;20059;-84
2022/12/18 04:12:59;;;;;;;43.50;16.45;;;-4.40;74.90;;;;;;4182477;28;20086;-85
2022/12/18 04:15:19;;;;;;;47.15;17.30;;;-4.40;74.90;;;;;;4186173;28;20112;-84
2022/12/18 04:17:43;;;;;;;38.67;15.18;;;-4.40;74.80;;;;;;4184778;28;20124;-85
2022/12/18 04:20:02;;;;;;;45.60;17.30;;;-4.40;74.90;;;;;;4182160;28;20064;-84
2022/12/18 04:22:21;;;;;;;42.58;17.17;;;-4.50;74.70;;;;;;4181645;28;20196;-85
2022/12/18 04:24:41;;;;;;;43.45;17.38;;;-4.50;74.80;;;;;;4180917;28;20114;-84
2022/12/18 04:27:00;;;;;;;43.80;16.42;;;-4.50;74.70;;;;;;4183217;28;20105;-85
2022/12/18 04:29:19;;;;;;;41.13;16.33;;;-4.50;74.80;;;;;;4183847;28;20052;-85
2022/12/18 04:31:38;;;;;;;48.45;18.92;;;-4.50;74.80;;;;;;4185328;28;20119;-84
2022/12/18 04:33:57;;;;;;;45.65;16.90;;;-4.50;74.70;;;;;;4182909;28;20043;-84
2022/12/18 04:36:16;;;;;;;48.53;18.67;;;-4.50;74.80;;;;;;4180229;28;20075;-84
2022/12/18 04:38:35;;;;;;;47.40;18.15;;;-4.50;74.80;;;;;;4181102;28;20051;-85
2022/12/18 04:40:54;;;;;;;42.50;17.50;;;-4.50;74.70;;;;;;4186217;28;20058;-84
2022/12/18 04:43:14;;;;;;;47.15;18.13;;;-4.50;74.70;;;;;;4180379;28;20094;-84
2022/12/18 04:45:33;;;;;;;48.65;17.65;;;-4.60;74.60;;;;;;4187808;28;20079;-84
2022/12/18 04:47:52;;;;;;;48.45;18.65;;;-4.60;74.60;;;;;;4186129;28;20039;-84
2022/12/18 04:50:11;;;;;;;50.00;17.85;;;-4.60;74.60;;;;;;4182205;28;20523;-84
2022/12/18 04:52:30;;;;;;;44.42;17.67;;;-4.60;74.60;;;;;;4184938;28;20082;-84
2022/12/18 04:54:49;;;;;;;42.03;17.00;;;-4.50;74.70;;;;;;4183206;28;20516;-85
2022/12/18 04:57:08;;;;;;;45.85;18.00;;;-4.60;74.60;;;;;;4181293;28;20032;-86
2022/12/18 04:59:28;;;;;;;43.67;17.10;;;-4.60;74.60;;;;;;4182406;28;20043;-85
2022/12/18 05:01:47;;;;;;;48.20;17.13;;;-4.70;74.50;;;;;;4184066;28;20105;-85
2022/12/18 05:04:06;;;;;;;47.17;18.10;;;-4.70;74.50;;;;;;4182361;28;20102;-85
2022/12/18 05:06:25;;;;;;;49.00;18.40;;;-4.70;74.60;;;;;;4182088;28;20219;-85
2022/12/18 05:08:44;;;;;;;45.47;16.75;;;-4.70;74.60;;;;;;4185170;28;20032;-85
2022/12/18 05:11:07;;;;;;;50.55;17.77;;;-4.70;74.60;;;;;;4180292;28;20101;-85
2022/12/18 05:13:27;;;;;;;40.08;16.70;;;-4.70;74.60;;;;;;4181112;28;20039;-85
2022/12/18 05:15:52;;;;;;;47.80;18.83;;;-4.70;74.60;;;;;;4194777;28;20039;-84
2022/12/18 05:18:11;;;;;;;40.95;16.90;;;-4.70;74.60;;;;;;4191522;28;20127;-84
2022/12/18 05:20:30;;;;;;;50.17;17.13;;;-4.70;74.60;;;;;;4186682;28;20130;-83
2022/12/18 05:22:51;;;;;;;41.20;16.70;;;-4.80;74.50;;;;;;4190049;28;20036;-84
2022/12/18 05:25:10;;;;;;;46.13;16.88;;;-4.80;74.50;;;;;;4188159;28;20046;-84
2022/12/18 05:27:29;;;;;;;45.58;17.38;;;-4.70;74.60;;;;;;4183411;28;20063;-84
2022/12/18 05:29:48;;;;;;;48.20;17.20;;;-4.80;74.60;;;;;;4182338;28;20040;-84
2022/12/18 05:32:07;;;;;;;38.92;16.67;;;-4.80;74.50;;;;;;4181950;28;20522;-84
2022/12/18 05:34:28;;;;;;;42.05;17.73;;;-4.80;74.60;;;;;;4184559;28;20051;-84
2022/12/18 05:36:47;;;;;;;42.55;16.83;;;-4.80;74.50;;;;;;4178515;28;20038;-85
2022/12/18 05:39:06;;;;;;;55.53;18.52;;;-4.80;74.50;;;;;;4186522;28;20044;-84
2022/12/18 05:41:25;;;;;;;48.97;18.15;;;-4.80;74.50;;;;;;4183306;28;20130;-86
2022/12/18 05:43:45;;;;;;;57.20;18.00;;;-4.80;75.30;;;;;;4185575;28;20043;-85
2022/12/18 05:46:06;;;;;;;45.97;17.73;;;-4.80;74.50;;;;;;4176911;28;20450;-83
2022/12/18 05:48:25;;;;;;;42.75;17.75;;;-4.80;74.50;;;;;;4183314;28;20075;-85
2022/12/18 05:50:47;;;;;;;50.15;18.10;;;-4.90;74.40;;;;;;4180459;28;20035;-84
2022/12/18 05:53:07;;;;;;;45.83;18.25;;;-4.90;74.40;;;;;;4174052;28;20086;-84
2022/12/18 05:55:27;;;;;;;53.95;18.98;;;-4.90;74.50;;;;;;4184895;28;20035;-84
2022/12/18 05:57:46;;;;;;;46.00;16.92;;;-4.90;74.40;;;;;;4181735;28;20043;-83
2022/12/18 06:00:06;;;;;;;47.65;18.42;;;-4.90;74.50;;;;;;4184773;28;20044;-84
2022/12/18 06:02:25;;;;;;;50.72;18.92;;;-4.90;74.50;;;;;;4174730;28;20052;-84
2022/12/18 06:04:45;;;;;;;51.25;18.70;;;-4.90;74.50;;;;;;4182270;28;20675;-84
2022/12/18 06:07:04;;;;;;;48.22;18.77;;;-4.90;74.60;;;;;;4173496;28;20091;-84
2022/12/18 06:09:23;;;;;;;50.25;18.70;;;-4.90;74.50;;;;;;4188061;28;20048;-83
2022/12/18 06:11:42;;;;;;;56.88;19.77;;;-4.90;74.60;;;;;;4179682;28;20657;-83
2022/12/18 06:14:01;;;;;;;50.13;18.85;;;-4.90;74.60;;;;;;4178581;28;20111;-83
2022/12/18 06:16:20;;;;;;;51.33;18.33;;;-4.90;74.60;;;;;;4179100;28;20087;-84
2022/12/18 06:18:39;;;;;;;58.75;19.75;;;-4.90;74.60;;;;;;4180962;28;20089;-84
2022/12/18 06:21:00;;;;;;;50.10;19.13;;;-4.90;74.60;;;;;;4185101;28;20048;-83
2022/12/18 06:23:19;;;;;;;53.55;19.95;;;-4.90;74.70;;;;;;4184193;28;20067;-84
2022/12/18 06:25:39;;;;;;;54.85;19.13;;;-4.90;74.70;;;;;;4181926;28;20039;-83
2022/12/18 06:27:58;;;;;;;66.88;20.08;;;-5.00;74.70;;;;;;4179058;28;20096;-82
2022/12/18 06:30:18;;;;;;;59.20;19.08;;;-4.90;75.40;;;;;;4184312;28;20058;-83
2022/12/18 06:32:37;;;;;;;54.25;18.75;;;-4.90;74.80;;;;;;4180694;28;20143;-82
2022/12/18 06:34:56;;;;;;;50.80;19.52;;;-5.00;74.70;;;;;;4183102;28;20086;-82
2022/12/18 06:37:15;;;;;;;52.55;19.17;;;-4.90;74.80;;;;;;4181394;28;20660;-83
2022/12/18 06:39:34;;;;;;;49.60;19.88;;;-5.00;74.70;;;;;;4180656;28;20051;-83
2022/12/18 06:41:53;;;;;;;51.63;19.88;;;-5.00;74.70;;;;;;4175928;28;20047;-83
2022/12/18 06:44:13;;;;;;;56.53;20.70;;;-5.00;74.80;;;;;;4180019;28;20783;-83
2022/12/18 06:46:32;;;;;;;57.78;20.05;;;-5.00;74.80;;;;;;4171133;28;20657;-83
2022/12/18 06:48:51;;;;;;;54.88;18.63;;;-5.00;74.80;;;;;;4177750;28;20043;-83
2022/12/18 06:51:10;;;;;;;58.08;19.75;;;-5.00;74.80;;;;;;4176251;28;20044;-83
2022/12/18 06:53:29;;;;;;;54.63;19.92;;;-5.00;74.80;;;;;;4180762;28;20163;-83
2022/12/18 06:55:48;;;;;;;50.22;19.13;;;-5.00;74.90;;;;;;4177824;28;20561;-83
2022/12/18 06:58:08;;;;;;;55.10;19.40;;;-5.00;74.90;;;;;;4182722;28;20048;-83
2022/12/18 07:00:28;;;;;;;56.38;19.95;;;-5.00;74.90;;;;;;4181852;28;20044;-83
2022/12/18 07:02:47;;;;;;;50.22;19.85;;;-4.90;75.00;;;;;;4179832;28;20097;-83
2022/12/18 07:05:06;;;;;;;51.35;19.33;;;-5.00;74.90;;;;;;4178403;28;20051;-85
2022/12/18 07:07:26;;;;;;;50.75;19.83;;;-5.00;74.90;;;;;;4174572;28;20631;-85
2022/12/18 07:09:45;;;;;;;56.78;21.00;;;-5.00;75.00;;;;;;4174228;28;20106;-86
2022/12/18 07:12:04;;;;;;;53.00;20.50;;;-5.00;75.00;;;;;;4178861;28;20093;-85
2022/12/18 07:14:24;;;;;;;50.03;19.00;;;-5.00;75.00;;;;;;4182300;28;20151;-85
2022/12/18 07:16:43;;;;;;;51.55;18.95;;;-5.00;75.00;;;;;;4180807;28;20090;-83
2022/12/18 07:19:02;;;;;;;46.25;18.33;;;-5.00;75.10;;;;;;4169171;28;20051;-83
2022/12/18 07:21:22;;;;;;;47.08;17.40;;;-5.00;75.00;;;;;;4175531;28;20420;-82
2022/12/18 07:23:42;;;;;;;50.53;20.63;;;-5.00;75.10;;;;;;4191188;28;20054;-83
2022/12/18 07:26:03;;;;;;;45.92;18.10;;;-5.00;75.00;;;;;;4182332;28;20625;-82
2022/12/18 07:28:23;;;;;;;53.25;19.02;;;-5.00;75.00;;;;;;4177438;28;20039;-84
2022/12/18 07:30:42;;;;;;;47.47;19.20;;;-5.00;75.10;;;;;;4179006;28;20028;-84
2022/12/18 07:33:01;;;;;;;46.40;18.23;;;-5.00;75.00;;;;;;4176943;28;20127;-82
2022/12/18 07:35:20;;;;;;;47.67;18.58;;;-5.00;75.00;;;;;;4172256;28;20039;-83
2022/12/18 07:37:40;;;;;;;42.70;17.35;;;-5.00;75.00;;;;;;4175100;28;20085;-87
2022/12/18 07:39:59;;;;;;;41.22;15.95;;;-5.00;75.00;;;;;;4184302;28;20098;-86
2022/12/18 07:42:30;;;;;;;52.22;18.08;;;-5.00;74.90;;;;;;4183025;28;20043;-86
2022/12/18 07:44:50;;;;;;;40.42;17.60;;;-5.00;75.70;;;;;;4175870;28;20480;-86
2022/12/18 07:47:09;;;;;;;49.72;19.40;;;-5.00;75.00;;;;;;4192933;28;20165;-83
2022/12/18 07:49:28;;;;;;;58.85;22.58;;;-5.00;74.90;;;;;;4177904;28;20032;-83
2022/12/18 07:51:48;;;;;;;58.33;23.48;;;-5.00;74.90;;;;;;4180552;28;20397;-83
2022/12/18 07:54:08;;;;;;;50.25;20.73;;;-5.00;75.00;;;;;;4180768;28;20167;-83
2022/12/18 07:56:27;;;;;;;52.75;21.85;;;-5.00;75.00;;;;;;4178034;28;20148;-84
2022/12/18 07:58:45;;;;;;;83.68;34.35;;;-5.00;75.00;;;;;;4178187;28;20035;-83
2022/12/18 08:01:09;;;;;;;50.50;22.02;;;-5.00;74.90;;;;;;4138797;28;1148671;-83
2022/12/18 08:03:28;;;;;;;51.13;20.70;;;-5.00;75.10;;;;;;4190378;28;20077;-83
2022/12/18 08:05:47;;;;;;;41.05;18.63;;;-5.00;74.90;;;;;;4171102;28;20090;-83
2022/12/18 08:08:06;;;;;;;37.63;16.75;;;-5.00;75.00;;;;;;4177988;28;20067;-86
2022/12/18 08:10:26;;;;;;;39.90;17.30;;;-5.00;75.00;;;;;;4177557;28;20067;-87
2022/12/18 08:12:45;;;;;;;43.17;18.77;;;-5.00;75.00;;;;;;4180735;28;20063;-84
2022/12/18 08:15:05;;;;;;;39.17;16.55;;;-5.00;75.00;;;;;;4183423;28;20508;-82
2022/12/18 08:17:24;;;;;;;37.00;16.60;;;-5.00;75.00;;;;;;4174930;28;20145;-83
2022/12/18 08:19:43;;;;;;;34.47;15.35;;;-5.00;75.10;;;;;;4180572;28;20067;-86
2022/12/18 08:22:02;;;;;;;37.47;14.93;;;-5.00;75.00;;;;;;4179448;28;20735;-86
2022/12/18 08:24:21;;;;;;;36.80;16.38;;;-5.00;75.10;;;;;;4185343;28;20031;-85
2022/12/18 08:26:40;;;;;;;37.58;17.25;;;-4.90;75.20;;;;;;4179180;28;20051;-85
2022/12/18 08:29:00;;;;;;;46.65;16.75;;;-4.90;75.10;;;;;;4182984;28;20047;-84
2022/12/18 08:31:19;;;;;;;36.35;16.27;;;-4.90;75.20;;;;;;4181314;28;20500;-85
2022/12/18 08:33:39;;;;;;;39.53;16.38;;;-4.90;75.20;;;;;;4185023;28;20733;-83
2022/12/18 08:35:59;;;;;;;34.20;16.60;;;-4.90;75.20;;;;;;4178901;28;20039;-82
2022/12/18 08:38:19;;;;;;;39.60;17.17;;;-4.90;75.30;;;;;;4181200;28;20743;-82
2022/12/18 08:40:38;;;;;;;34.90;15.18;;;-4.80;75.30;;;;;;4179757;28;20467;-82
2022/12/18 08:45:35;;;;;;;37.30;15.75;;;-4.80;75.40;;;;;;4179556;28;20039;-82
2022/12/18 08:47:55;;;;;;;37.45;14.75;;;-4.80;75.30;;;;;;4181194;28;20056;-83
2022/12/18 08:50:14;;;;;;;36.83;15.73;;;-4.70;75.40;;;;;;4181606;28;20063;-83
2022/12/18 08:52:34;;;;;;;37.58;15.73;;;-4.60;75.50;;;;;;4185950;28;20540;-82
2022/12/18 08:54:53;;;;;;;33.55;15.75;;;-4.70;76.30;;;;;;4171967;28;20083;-83
2022/12/18 08:57:12;;;;;;;31.83;14.82;;;-4.70;75.50;;;;;;4174099;28;20062;-82
2022/12/18 08:59:31;;;;;;;33.78;14.52;;;-4.60;75.50;;;;;;4177899;28;20145;-83
2022/12/18 09:01:53;;;;;;;38.15;15.40;;;-4.60;75.50;;;;;;4182974;28;20040;-81
2022/12/18 09:04:13;;;;;;;37.35;15.73;;;-4.60;75.50;;;;;;4180393;28;20047;-84
2022/12/18 09:06:32;;;;;;;32.53;14.00;;;-4.50;76.30;;;;;;4184570;28;20044;-83
2022/12/18 09:08:51;;;;;;;31.15;15.45;;;-4.50;75.60;;;;;;4176295;28;20123;-83
2022/12/18 09:11:19;;;;;;;36.85;14.35;;;-4.50;75.60;;;;;;4181478;28;20032;-83
2022/12/18 09:13:38;;;;;;;34.40;14.68;;;-4.40;75.70;;;;;;4177613;28;20107;-83
2022/12/18 09:15:57;;;;;;;32.08;14.52;;;-4.40;75.70;;;;;;4185202;28;20039;-83
2022/12/18 09:18:18;;;;;;;31.75;13.95;;;-4.30;75.80;;;;;;4180721;28;20263;-83
2022/12/18 09:20:38;;;;;;;30.50;13.68;;;-4.30;75.80;;;;;;4174906;28;20060;-83
2022/12/18 09:22:57;;;;;;;29.73;13.52;;;-4.30;75.80;;;;;;4173753;28;20039;-83
2022/12/18 09:25:16;;;;;;;27.45;13.25;;;-4.20;75.80;;;;;;4178431;28;20928;-82
2022/12/18 09:27:36;;;;;;;30.52;14.07;;;-4.20;75.80;;;;;;4179413;28;20405;-83
2022/12/18 09:29:55;;;;;;;29.75;12.23;;;-4.10;76.00;;;;;;4176877;28;20039;-83
2022/12/18 09:32:14;;;;;;;25.42;12.40;;;-4.10;76.00;;;;;;4184388;28;20114;-83
2022/12/18 09:34:34;;;;;;;28.73;12.20;;;-4.00;76.00;;;;;;4178231;28;20122;-84
2022/12/18 09:36:53;;;;;;;23.17;11.30;;;-4.00;76.10;;;;;;4183283;28;20810;-83
2022/12/18 09:39:12;;;;;;;25.55;11.77;;;-3.90;76.20;;;;;;4181463;28;20464;-83
2022/12/18 09:41:45;;;;;;;22.90;11.50;;;-3.80;76.20;;;;;;4174893;28;20452;-84
2022/12/18 09:44:24;;;;;;;22.48;10.80;;;-3.80;76.10;;;;;;4178050;28;20054;-89
2022/12/18 09:47:09;;;;;;;24.63;10.13;;;-3.70;76.10;;;;;;4175039;28;20361;-84
2022/12/18 09:49:34;;;;;;;21.83;10.32;;;-3.60;76.10;;;;;;4181828;28;20031;-84
2022/12/18 09:52:20;;;;;;;18.25;9.05;;;-3.60;76.00;;;;;;4178828;28;20043;-82
2022/12/18 09:54:44;;;;;;;24.35;10.00;;;-3.50;75.90;;;;;;4175890;28;20042;-84
2022/12/18 09:57:04;;;;;;;22.33;8.77;;;-3.40;75.80;;;;;;4176629;28;20811;-84
2022/12/18 09:59:37;;;;;;;16.58;8.23;;;-3.40;75.70;;;;;;4175238;28;20060;-84
2022/12/18 10:01:56;;;;;;;20.35;9.38;;;-3.40;75.60;;;;;;4166081;28;20063;-82
2022/12/18 10:04:15;;;;;;;17.35;8.18;;;-3.30;75.60;;;;;;4178791;28;20420;-83
2022/12/18 10:06:47;;;;;;;16.27;7.82;;;-3.20;75.50;;;;;;4170752;28;20539;-83
2022/12/18 10:09:43;;;;;;;18.40;7.65;;;-3.20;75.30;;;;;;4180377;28;20042;-83
2022/12/18 10:12:12;;;;;;;16.48;7.82;;;-3.10;75.30;;;;;;4181450;28;20147;-83
2022/12/18 10:15:28;;;;;;;18.35;8.38;;;-3.10;75.20;;;;;;4180922;28;20047;-84
2022/12/18 10:18:00;;;;;;;18.33;8.48;;;-3.10;75.20;;;;;;4121593;28;20509;-83
2022/12/18 10:20:41;;;;;;;20.38;7.22;;;-3.00;74.90;;;;;;4136168;28;20041;-83
2022/12/18 10:23:20;;;;;;;17.13;7.10;;;-3.00;74.90;;;;;;4172261;28;20047;-84
2022/12/18 10:26:03;;;;;;;14.48;7.10;;;-2.90;74.80;;;;;;4185078;28;20040;-84
2022/12/18 10:28:24;;;;;;;13.30;7.00;;;-2.90;74.40;;;;;;4188481;28;22352;-83
2022/12/18 10:30:44;;;;;;;17.10;7.57;;;-2.90;74.40;;;;;;4187530;28;20067;-83
2022/12/18 10:33:03;;;;;;;15.25;7.00;;;-2.80;74.30;;;;;;4182053;28;20136;-83
2022/12/18 10:35:25;;;;;;;13.25;7.63;;;-2.80;74.20;;;;;;4187152;28;20580;-83
2022/12/18 10:38:07;;;;;;;19.83;7.00;;;-2.70;74.10;;;;;;4187331;28;20043;-83
2022/12/18 10:40:26;;;;;;;16.25;7.40;;;-2.70;73.90;;;;;;4185368;28;20063;-84
2022/12/18 10:42:47;;;;;;;15.27;7.22;;;-2.70;73.90;;;;;;4187192;28;20039;-84
2022/12/18 10:45:20;;;;;;;17.33;6.88;;;-2.60;73.80;;;;;;4185231;28;20684;-83
2022/12/18 10:47:48;;;;;;;15.95;7.35;;;-2.60;73.70;;;;;;4186643;28;20044;-84
2022/12/18 10:50:34;;;;;;;19.83;8.27;;;-2.60;73.70;;;;;;4183933;28;20054;-83
2022/12/18 10:52:57;;;;;;;15.55;6.53;;;-2.50;73.70;;;;;;4191087;28;20047;-84
2022/12/18 10:55:18;;;;;;;12.80;6.25;;;-2.50;73.50;;;;;;4188636;28;20058;-84
2022/12/18 10:57:40;;;;;;;13.10;6.22;;;-2.40;73.60;;;;;;4185090;28;20116;-83
2022/12/18 11:00:19;;;;;;;12.63;5.97;;;-2.40;73.40;;;;;;4186428;28;20063;-84
2022/12/18 11:02:38;;;;;;;14.60;6.32;;;-2.40;73.20;;;;;;4184239;28;20087;-84
2022/12/18 11:04:57;;;;;;;15.75;6.50;;;-2.30;72.90;;;;;;4181723;28;20542;-84
2022/12/18 11:07:17;;;;;;;14.43;6.07;;;-2.30;72.70;;;;;;4168659;28;20516;-84
2022/12/18 11:09:38;;;;;;;14.73;6.53;;;-2.20;72.70;;;;;;4169341;28;20040;-84
2022/12/18 11:12:00;;;;;;;11.10;5.25;;;-2.20;72.70;;;;;;4191361;28;20035;-83
2022/12/18 11:14:27;;;;;;;11.75;5.97;;;-2.20;72.50;;;;;;4183689;28;20028;-83
2022/12/18 11:16:49;;;;;;;13.18;6.03;;;-2.20;72.40;;;;;;4187617;28;20106;-84
2022/12/18 11:19:15;;;;;;;12.07;5.75;;;-2.10;72.00;;;;;;4185955;28;20048;-84
2022/12/18 11:21:42;;;;;;;10.82;5.60;;;-2.00;73.20;;;;;;4187532;28;20044;-84
2022/12/18 11:24:01;;;;;;;16.10;5.40;;;-2.00;72.40;;;;;;4189825;28;20059;-83
2022/12/18 11:26:21;;;;;;;12.00;5.68;;;-1.90;72.30;;;;;;4189121;28;20143;-82
2022/12/18 11:28:49;;;;;;;10.80;4.90;;;-1.90;71.80;;;;;;4192124;28;20047;-84
2022/12/18 11:31:15;;;;;;;11.25;5.28;;;-1.80;71.60;;;;;;4190628;28;20059;-83
2022/12/18 11:33:35;;;;;;;12.20;4.60;;;-1.80;71.70;;;;;;4189423;28;20024;-84
2022/12/18 11:36:05;;;;;;;9.20;4.65;;;-1.80;71.30;;;;;;4188553;28;20121;-83
2022/12/18 11:38:32;;;;;;;8.88;4.53;;;-1.70;71.00;;;;;;4188103;28;20090;-83
2022/12/18 11:40:59;;;;;;;10.80;5.20;;;-1.70;70.90;;;;;;4182565;28;20041;-84
2022/12/18 11:43:42;;;;;;;14.70;5.00;;;-1.70;70.80;;;;;;4179177;28;20028;-83
2022/12/18 11:46:06;;;;;;;8.27;4.60;;;-1.70;70.40;;;;;;4182935;28;20380;-84
2022/12/18 11:48:32;;;;;;;13.05;5.25;;;-1.70;69.90;;;;;;4182733;28;20586;-84
2022/12/18 11:51:01;;;;;;;13.02;5.05;;;-1.70;69.70;;;;;;4177320;28;20653;-84
2022/12/18 11:53:21;;;;;;;13.55;5.20;;;-1.60;70.10;;;;;;4176362;28;20116;-84
2022/12/18 11:55:53;;;;;;;10.23;4.65;;;-1.70;69.80;;;;;;4185234;28;20038;-84
2022/12/18 11:58:32;;;;;;;9.57;4.80;;;-1.70;69.40;;;;;;4180147;28;20108;-83
2022/12/18 12:01:22;;;;;;;11.50;4.97;;;-1.70;69.50;;;;;;4173674;28;20676;-84
2022/12/18 12:03:44;;;;;;;10.23;4.43;;;-1.60;69.90;;;;;;4171057;28;20568;-84
2022/12/18 12:06:28;;;;;;;9.73;4.40;;;-1.70;69.70;;;;;;4181756;28;20703;-84
2022/12/18 12:09:32;;;;;;;11.55;5.50;;;-1.60;69.80;;;;;;4176385;28;20078;-83
2022/12/18 12:12:05;;;;;;;12.90;5.28;;;-1.60;69.70;;;;;;4173420;28;20039;-84
2022/12/18 12:14:48;;;;;;;14.68;5.20;;;-1.60;69.50;;;;;;4176415;28;20143;-84